createdAt,value
2023-04-12T00:00:59.221Z,84.11
2023-04-12T00:02:36.059Z,83.85
2023-04-12T00:04:10.532Z,84.14
2023-04-12T00:05:47.444Z,84.13
2023-04-12T00:07:21.528Z,84.08
2023-04-12T00:08:54.542Z,83.98
2023-04-12T00:10:27.366Z,83.88
2023-04-12T00:12:00.802Z,83.59
2023-04-12T00:13:34.279Z,83.82
2023-04-12T00:15:08.296Z,84.20
2023-04-12T00:16:42.024Z,84.70
2023-04-12T00:18:15.347Z,83.46
2023-04-12T00:19:50.318Z,82.66
2023-04-12T00:21:24.133Z,82.51
2023-04-12T00:22:57.877Z,83.02
2023-04-12T00:24:30.788Z,83.55
2023-04-12T00:26:03.754Z,83.74
2023-04-12T00:27:36.520Z,84.20
2023-04-12T00:29:09.655Z,83.92
2023-04-12T00:30:42.790Z,83.58
2023-04-12T00:32:16.049Z,83.27
2023-04-12T00:33:48.959Z,82.55
2023-04-12T00:35:21.903Z,82.80
2023-04-12T00:36:55.248Z,83.08
2023-04-12T00:38:28.309Z,83.05
2023-04-12T00:40:01.568Z,83.05
2023-04-12T00:41:36.957Z,82.32
2023-04-12T00:43:15.814Z,82.37
2023-04-12T00:44:48.814Z,82.76
2023-04-12T00:46:21.800Z,83.37
2023-04-12T00:47:56.681Z,83.93
2023-04-12T00:49:31.316Z,83.21
2023-04-12T00:51:05.139Z,83.03
2023-04-12T00:52:38.320Z,83.27
2023-04-12T00:54:14.142Z,81.90
2023-04-12T00:55:47.183Z,81.72
2023-04-12T00:57:20.299Z,82.21
2023-04-12T00:58:53.155Z,81.92
2023-04-12T01:00:25.824Z,81.91
2023-04-12T01:01:59.804Z,81.49
2023-04-12T01:03:32.816Z,82.32
2023-04-12T01:05:07.730Z,82.93
2023-04-12T01:06:40.952Z,83.12
2023-04-12T01:08:36.806Z,83.61
2023-04-12T01:10:12.687Z,83.62
2023-04-12T01:11:49.008Z,83.42
2023-04-12T01:13:45.448Z,83.69
2023-04-12T01:15:19.670Z,84.82
2023-04-12T01:16:56.576Z,84.71
2023-04-12T01:18:34.538Z,85.33
2023-04-12T01:20:14.878Z,86.15
2023-04-12T01:21:59.491Z,86.45
2023-04-12T01:23:43.752Z,86.70
2023-04-12T01:25:26.671Z,86.62
2023-04-12T01:27:02.068Z,86.03
2023-04-12T01:28:35.719Z,85.32
2023-04-12T01:30:09.279Z,85.36
2023-04-12T01:31:44.921Z,85.30
2023-04-12T01:33:18.309Z,84.71
2023-04-12T01:34:51.541Z,84.76
2023-04-12T01:36:27.579Z,84.60
2023-04-12T01:38:00.776Z,84.75
2023-04-12T01:39:33.942Z,84.36
2023-04-12T01:41:08.856Z,82.97
2023-04-12T01:42:41.421Z,83.16
2023-04-12T01:44:15.222Z,82.65
2023-04-12T01:45:48.148Z,81.60
2023-04-12T01:47:21.110Z,81.05
2023-04-12T01:48:54.632Z,80.28
2023-04-12T01:50:30.979Z,79.72
2023-04-12T01:52:13.462Z,80.54
2023-04-12T01:53:49.137Z,80.49
2023-04-12T01:55:23.041Z,79.70
2023-04-12T01:56:58.273Z,80.06
2023-04-12T01:58:31.912Z,80.33
2023-04-12T02:00:08.202Z,80.30
2023-04-12T02:01:47.656Z,79.74
2023-04-12T02:03:22.260Z,79.87
2023-04-12T02:04:55.652Z,78.86
2023-04-12T02:06:28.636Z,74.42
2023-04-12T02:08:02.805Z,67.21
2023-04-12T02:09:39.753Z,60.92
2023-04-12T02:11:12.563Z,55.16
2023-04-12T02:12:45.169Z,52.14
2023-04-12T02:14:17.996Z,50.39
2023-04-12T02:15:50.918Z,50.31
2023-04-12T02:17:23.858Z,49.33
2023-04-12T02:18:59.700Z,47.98
2023-04-12T02:20:32.678Z,47.35
2023-04-12T02:22:06.282Z,46.00
2023-04-12T02:23:38.976Z,45.54
2023-04-12T02:25:12.049Z,45.09
2023-04-12T02:26:44.913Z,44.09
2023-04-12T02:28:18.433Z,43.44
2023-04-12T02:29:51.242Z,42.15
2023-04-12T02:31:24.838Z,41.59
2023-04-12T02:32:58.916Z,40.07
2023-04-12T02:34:37.102Z,39.51
2023-04-12T02:36:27.773Z,38.42
2023-04-12T02:38:00.697Z,37.48
2023-04-12T02:39:36.573Z,37.15
2023-04-12T02:41:10.604Z,36.80
2023-04-12T02:42:43.782Z,36.88
2023-04-12T02:44:18.403Z,36.84
2023-04-12T02:46:02.255Z,36.20
2023-04-12T02:47:41.438Z,36.05
2023-04-12T02:49:16.110Z,35.90
2023-04-12T02:50:49.183Z,34.76
2023-04-12T02:52:25.586Z,34.87
2023-04-12T02:54:17.365Z,34.52
2023-04-12T02:56:01.483Z,35.19
2023-04-12T02:57:36.080Z,34.51
2023-04-12T02:59:11.025Z,34.81
2023-04-12T03:01:03.188Z,34.26
2023-04-12T03:02:42.079Z,33.96
2023-04-12T03:04:20.601Z,33.54
2023-04-12T03:05:58.891Z,32.44
2023-04-12T03:07:31.964Z,32.81
2023-04-12T03:09:05.237Z,32.03
2023-04-12T03:10:37.975Z,32.19
2023-04-12T03:12:11.457Z,31.10
2023-04-12T03:13:53.702Z,31.29
2023-04-12T03:15:28.482Z,31.16
2023-04-12T03:17:02.151Z,30.95
2023-04-12T03:18:34.824Z,31.40
2023-04-12T03:20:10.369Z,31.88
2023-04-12T03:21:47.146Z,31.22
2023-04-12T03:23:20.831Z,30.59
2023-04-12T03:25:06.665Z,31.21
2023-04-12T03:26:39.964Z,30.17
2023-04-12T03:28:19.447Z,30.38
2023-04-12T03:29:54.859Z,29.73
2023-04-12T03:31:29.445Z,30.21
2023-04-12T03:33:07.164Z,30.04
2023-04-12T03:34:40.336Z,29.49
2023-04-12T03:36:18.292Z,29.60
2023-04-12T03:37:55.996Z,29.13
2023-04-12T03:39:29.254Z,29.32
2023-04-12T03:41:02.287Z,29.08
2023-04-12T03:42:42.058Z,28.44
2023-04-12T03:44:19.685Z,28.54
2023-04-12T03:45:52.684Z,28.44
2023-04-12T03:47:25.417Z,28.26
2023-04-12T03:48:58.139Z,29.25
2023-04-12T03:50:32.118Z,28.97
2023-04-12T03:52:06.490Z,28.09
2023-04-12T03:53:41.733Z,27.72
2023-04-12T03:55:19.448Z,27.54
2023-04-12T03:56:56.864Z,27.94
2023-04-12T03:58:37.977Z,27.54
2023-04-12T04:00:13.735Z,28.07
2023-04-12T04:02:09.530Z,27.95
2023-04-12T04:03:50.825Z,28.08
2023-04-12T04:05:31.705Z,28.41
2023-04-12T04:07:05.689Z,27.64
2023-04-12T04:08:45.699Z,27.53
2023-04-12T04:10:19.832Z,27.30
2023-04-12T04:11:52.829Z,27.18
2023-04-12T04:13:27.236Z,26.90
2023-04-12T04:15:05.058Z,27.30
2023-04-12T04:16:39.768Z,27.93
2023-04-12T04:18:14.519Z,26.90
2023-04-12T04:19:47.880Z,26.84
2023-04-12T04:21:22.575Z,26.89
2023-04-12T04:23:01.034Z,26.55
2023-04-12T04:24:34.557Z,26.01
2023-04-12T04:26:10.847Z,26.44
2023-04-12T04:27:51.360Z,26.14
2023-04-12T04:29:26.187Z,26.80
2023-04-12T04:31:04.286Z,26.40
2023-04-12T04:32:41.687Z,26.07
2023-04-12T04:34:14.725Z,26.23
2023-04-12T04:35:52.199Z,26.28
2023-04-12T04:37:35.659Z,26.57
2023-04-12T04:39:08.479Z,26.19
2023-04-12T04:40:46.822Z,26.72
2023-04-12T04:42:21.974Z,26.28
2023-04-12T04:44:04.829Z,26.74
2023-04-12T04:45:41.817Z,26.14
2023-04-12T04:47:14.910Z,26.07
2023-04-12T04:48:48.936Z,26.21
2023-04-12T04:50:22.344Z,25.80
2023-04-12T04:51:56.867Z,26.31
2023-04-12T04:53:31.687Z,26.51
2023-04-12T04:55:07.914Z,26.88
2023-04-12T04:56:42.892Z,26.07
2023-04-12T04:58:17.691Z,26.22
2023-04-12T04:59:51.668Z,25.73
2023-04-12T05:01:28.855Z,25.65
2023-04-12T05:03:04.344Z,25.57
2023-04-12T05:04:37.346Z,24.89
2023-04-12T05:06:10.352Z,24.84
2023-04-12T05:07:44.335Z,25.11
2023-04-12T05:09:17.066Z,25.19
2023-04-12T05:10:56.260Z,25.53
2023-04-12T05:12:33.390Z,24.99
2023-04-12T05:14:06.523Z,26.20
2023-04-12T05:15:40.765Z,25.71
2023-04-12T05:17:13.445Z,25.68
2023-04-12T05:18:46.318Z,25.15
2023-04-12T05:20:19.436Z,24.58
2023-04-12T05:21:52.158Z,24.59
2023-04-12T05:23:24.883Z,24.93
2023-04-12T05:24:58.971Z,24.39
2023-04-12T05:26:35.573Z,24.71
2023-04-12T05:28:14.611Z,24.63
2023-04-12T05:29:47.792Z,24.87
2023-04-12T05:31:24.503Z,24.62
2023-04-12T05:32:57.684Z,24.94
2023-04-12T05:34:31.292Z,24.83
2023-04-12T05:36:04.460Z,25.04
2023-04-12T05:37:37.301Z,25.47
2023-04-12T05:39:10.184Z,24.87
2023-04-12T05:40:44.418Z,24.93
2023-04-12T05:42:19.675Z,24.87
2023-04-12T05:43:52.391Z,24.40
2023-04-12T05:45:25.224Z,23.94
2023-04-12T05:46:58.880Z,24.33
2023-04-12T05:48:31.524Z,23.84
2023-04-12T05:50:07.814Z,23.83
2023-04-12T05:51:41.692Z,23.91
2023-04-12T05:53:23.668Z,24.21
2023-04-12T05:54:57.137Z,23.95
2023-04-12T05:56:30.028Z,24.11
2023-04-12T05:58:02.884Z,24.38
2023-04-12T05:59:36.726Z,24.28
2023-04-12T06:01:09.504Z,24.13
2023-04-12T06:02:44.844Z,23.87
2023-04-12T06:04:18.129Z,23.69
2023-04-12T06:05:52.808Z,23.75
2023-04-12T06:07:26.094Z,23.89
2023-04-12T06:09:01.003Z,23.75
2023-04-12T06:10:34.607Z,23.88
2023-04-12T06:12:09.096Z,23.97
2023-04-12T06:13:41.917Z,24.20
2023-04-12T06:15:14.873Z,23.75
2023-04-12T06:16:47.857Z,23.39
2023-04-12T06:18:20.560Z,23.12
2023-04-12T06:19:53.479Z,23.18
2023-04-12T06:21:26.398Z,23.35
2023-04-12T06:22:59.840Z,23.35
2023-04-12T06:24:32.926Z,23.15
2023-04-12T06:26:06.072Z,23.33
2023-04-12T06:27:39.058Z,23.64
2023-04-12T06:29:12.166Z,23.52
2023-04-12T06:30:46.114Z,23.54
2023-04-12T06:32:19.201Z,23.74
2023-04-12T06:33:55.715Z,24.17
2023-04-12T06:35:28.776Z,24.33
2023-04-12T06:37:01.867Z,23.91
2023-04-12T06:38:34.498Z,24.00
2023-04-12T06:40:07.615Z,23.88
2023-04-12T06:41:40.441Z,22.73
2023-04-12T06:43:13.532Z,22.41
2023-04-12T06:44:46.326Z,22.58
2023-04-12T06:46:26.180Z,21.82
2023-04-12T06:47:59.405Z,21.84
2023-04-12T06:49:32.637Z,22.42
2023-04-12T06:51:05.851Z,22.59
2023-04-12T06:52:38.537Z,21.97
2023-04-12T06:54:11.620Z,22.54
2023-04-12T06:55:44.515Z,22.17
2023-04-12T06:57:17.206Z,22.21
2023-04-12T06:58:49.882Z,22.42
2023-04-12T07:00:22.906Z,22.81
2023-04-12T07:01:55.728Z,22.82
2023-04-12T07:03:31.674Z,22.56
2023-04-12T07:05:04.325Z,22.65
2023-04-12T07:06:37.090Z,23.13
2023-04-12T07:08:09.984Z,23.11
2023-04-12T07:09:43.361Z,22.73
2023-04-12T07:11:21.582Z,23.15
2023-04-12T07:12:55.011Z,22.80
2023-04-12T07:14:27.916Z,22.54
2023-04-12T07:16:01.246Z,22.62
2023-04-12T07:17:34.142Z,22.73
2023-04-12T07:19:06.806Z,22.94
2023-04-12T07:20:39.515Z,23.18
2023-04-12T07:22:13.632Z,23.00
2023-04-12T07:23:47.804Z,23.29
2023-04-12T07:25:24.494Z,23.31
2023-04-12T07:26:57.970Z,23.01
2023-04-12T07:28:31.363Z,22.52
2023-04-12T07:30:04.527Z,23.09
2023-04-12T07:31:37.473Z,23.35
2023-04-12T07:33:19.259Z,23.63
2023-04-12T07:34:53.388Z,23.11
2023-04-12T07:36:27.466Z,23.25
2023-04-12T07:38:01.563Z,23.36
2023-04-12T07:39:35.237Z,23.51
2023-04-12T07:41:08.216Z,23.63
2023-04-12T07:42:40.809Z,23.75
2023-04-12T07:44:13.866Z,23.40
2023-04-12T07:45:46.720Z,23.57
2023-04-12T07:47:19.658Z,23.48
2023-04-12T07:48:52.628Z,23.72
2023-04-12T07:50:25.417Z,23.86
2023-04-12T07:51:58.258Z,23.63
2023-04-12T07:53:31.662Z,22.98
2023-04-12T07:55:04.560Z,23.45
2023-04-12T07:56:37.380Z,23.78
2023-04-12T07:58:10.241Z,23.43
2023-04-12T07:59:42.859Z,23.31
2023-04-12T08:01:16.112Z,23.39
2023-04-12T08:02:49.147Z,23.45
2023-04-12T08:04:22.211Z,23.30
2023-04-12T08:05:55.126Z,23.15
2023-04-12T08:07:27.881Z,22.63
2023-04-12T08:09:01.499Z,22.78
2023-04-12T08:10:34.858Z,23.14
2023-04-12T08:12:07.662Z,23.12
2023-04-12T08:13:40.304Z,22.97
2023-04-12T08:15:13.715Z,22.89
2023-04-12T08:16:46.919Z,22.80
2023-04-12T08:18:19.574Z,23.03
2023-04-12T08:19:52.416Z,22.41
2023-04-12T08:21:25.399Z,22.29
2023-04-12T08:22:58.109Z,22.61
2023-04-12T08:24:31.334Z,22.98
2023-04-12T08:26:04.044Z,23.38
2023-04-12T08:27:37.169Z,22.91
2023-04-12T08:29:10.051Z,22.65
2023-04-12T08:30:43.418Z,22.80
2023-04-12T08:32:16.854Z,22.72
2023-04-12T08:33:49.863Z,22.68
2023-04-12T08:35:23.284Z,22.97
2023-04-12T08:36:59.483Z,22.94
2023-04-12T08:40:10.510Z,22.54
2023-04-12T08:41:43.725Z,23.28
2023-04-12T08:43:18.165Z,22.52
2023-04-12T08:44:52.426Z,22.85
2023-04-12T08:46:26.284Z,23.01
2023-04-12T08:48:00.964Z,22.88
2023-04-12T08:49:34.742Z,22.97
2023-04-12T08:51:07.861Z,22.90
2023-04-12T08:52:42.258Z,22.41
2023-04-12T08:54:16.149Z,22.34
2023-04-12T08:55:48.888Z,22.31
2023-04-12T08:57:22.716Z,22.16
2023-04-12T08:58:56.617Z,21.90
2023-04-12T09:00:29.749Z,22.03
2023-04-12T09:02:03.482Z,22.09
2023-04-12T09:03:37.237Z,22.36
2023-04-12T09:05:13.580Z,22.53
2023-04-12T09:06:46.309Z,22.76
2023-04-12T09:08:19.035Z,22.73
2023-04-12T09:09:52.009Z,22.53
2023-04-12T09:11:26.203Z,22.27
2023-04-12T09:12:59.094Z,22.19
2023-04-12T09:14:32.024Z,22.23
2023-04-12T09:16:05.455Z,22.28
2023-04-12T09:17:39.682Z,22.33
2023-04-12T09:19:12.524Z,22.39
2023-04-12T09:20:45.313Z,22.00
2023-04-12T09:22:18.860Z,22.04
2023-04-12T09:24:14.572Z,22.07
2023-04-12T09:25:54.690Z,22.33
2023-04-12T09:27:28.778Z,22.37
2023-04-12T09:29:05.723Z,22.15
2023-04-12T09:30:42.606Z,22.40
2023-04-12T09:32:16.024Z,22.30
2023-04-12T09:33:48.890Z,22.37
2023-04-12T09:35:37.956Z,22.00
2023-04-12T09:37:15.333Z,21.56
2023-04-12T09:39:02.247Z,21.67
2023-04-12T09:40:36.733Z,21.63
2023-04-12T09:42:25.466Z,21.61
2023-04-12T09:44:05.173Z,21.75
2023-04-12T09:45:41.742Z,21.98
2023-04-12T09:47:15.075Z,21.83
2023-04-12T09:48:52.389Z,21.81
2023-04-12T09:50:29.071Z,21.97
2023-04-12T09:52:02.421Z,22.11
2023-04-12T09:53:36.797Z,22.02
2023-04-12T09:55:11.295Z,22.15
2023-04-12T09:56:46.504Z,21.94
2023-04-12T09:58:21.094Z,21.45
2023-04-12T09:59:55.911Z,21.92
2023-04-12T10:01:30.301Z,21.68
2023-04-12T10:03:04.092Z,21.70
2023-04-12T10:04:40.097Z,21.49
2023-04-12T10:06:13.348Z,21.26
2023-04-12T10:07:47.610Z,21.34
2023-04-12T10:09:21.556Z,21.85
2023-04-12T10:10:55.526Z,21.75
2023-04-12T10:12:28.824Z,22.00
2023-04-12T10:14:05.770Z,21.69
2023-04-12T10:15:40.241Z,21.40
2023-04-12T10:17:15.299Z,21.72
2023-04-12T10:18:48.780Z,21.55
2023-04-12T10:20:24.190Z,21.55
2023-04-12T10:22:01.415Z,21.59
2023-04-12T10:23:35.047Z,21.82
2023-04-12T10:25:11.194Z,21.63
2023-04-12T10:26:45.304Z,21.82
2023-04-12T10:28:19.579Z,21.61
2023-04-12T10:29:52.527Z,21.70
2023-04-12T10:31:30.068Z,22.02
2023-04-12T10:33:03.118Z,21.39
2023-04-12T10:34:37.069Z,21.70
2023-04-12T10:36:12.562Z,21.91
2023-04-12T10:38:00.412Z,21.72
2023-04-12T10:39:44.072Z,21.48
2023-04-12T10:41:22.067Z,21.25
2023-04-12T10:43:17.510Z,21.48
2023-04-12T10:44:55.992Z,21.63
2023-04-12T10:46:39.884Z,21.42
2023-04-12T10:48:32.396Z,21.45
2023-04-12T10:50:27.528Z,21.68
2023-04-12T10:52:08.993Z,21.73
2023-04-12T10:53:42.881Z,21.53
2023-04-12T10:55:30.852Z,21.76
2023-04-12T10:57:05.182Z,21.71
2023-04-12T10:58:51.298Z,21.98
2023-04-12T11:00:47.179Z,21.65
2023-04-12T11:02:20.482Z,21.43
2023-04-12T11:04:14.086Z,21.51
2023-04-12T11:06:09.163Z,21.66
2023-04-12T11:08:24.651Z,21.55
2023-04-12T11:10:22.213Z,21.58
2023-04-12T11:11:59.490Z,21.25
2023-04-12T11:13:39.449Z,21.37
2023-04-12T11:15:13.909Z,21.18
2023-04-12T11:17:07.810Z,21.59
2023-04-12T11:18:41.966Z,21.65
2023-04-12T11:20:16.569Z,21.49
2023-04-12T11:21:49.779Z,21.59
2023-04-12T11:23:23.301Z,21.18
2023-04-12T11:24:57.680Z,21.48
2023-04-12T11:26:31.720Z,21.52
2023-04-12T11:28:17.280Z,21.08
2023-04-12T11:29:56.265Z,20.73
2023-04-12T11:31:29.204Z,20.83
2023-04-12T11:33:06.008Z,20.88
2023-04-12T11:34:38.835Z,20.87
2023-04-12T11:36:15.278Z,21.27
2023-04-12T11:37:49.057Z,21.19
2023-04-12T11:39:22.247Z,21.82
2023-04-12T11:40:55.290Z,21.83
2023-04-12T11:42:29.687Z,21.79
2023-04-12T11:44:02.465Z,21.82
2023-04-12T11:45:36.886Z,21.39
2023-04-12T11:47:19.488Z,21.49
2023-04-12T11:48:52.741Z,21.29
2023-04-12T11:50:29.419Z,21.35
2023-04-12T11:52:03.587Z,21.24
2023-04-12T11:53:36.271Z,21.32
2023-04-12T11:55:11.507Z,21.37
2023-04-12T11:56:44.845Z,21.61
2023-04-12T11:58:18.138Z,21.33
2023-04-12T11:59:51.472Z,21.60
2023-04-12T12:01:24.554Z,21.46
2023-04-12T12:04:37.425Z,21.32
2023-04-12T12:06:11.004Z,21.04
2023-04-12T12:07:44.232Z,21.42
2023-04-12T12:09:20.582Z,22.00
2023-04-12T12:11:07.244Z,21.77
2023-04-12T12:12:48.548Z,21.62
2023-04-12T12:14:22.195Z,21.84
2023-04-12T12:15:54.908Z,21.79
2023-04-12T12:17:27.818Z,21.93
2023-04-12T12:19:04.486Z,21.46
2023-04-12T12:20:56.600Z,21.43
2023-04-12T12:22:29.466Z,21.55
2023-04-12T12:24:02.734Z,21.45
2023-04-12T12:25:35.574Z,21.58
2023-04-12T12:27:08.521Z,21.44
2023-04-12T12:28:41.501Z,21.76
2023-04-12T12:30:17.267Z,21.66
2023-04-12T12:31:50.286Z,22.03
2023-04-12T12:33:32.055Z,22.00
2023-04-12T12:35:13.079Z,21.77
2023-04-12T12:36:55.747Z,21.76
2023-04-12T12:38:37.500Z,21.78
2023-04-12T12:40:14.023Z,21.93
2023-04-12T12:41:56.144Z,21.61
2023-04-12T12:43:28.866Z,22.06
2023-04-12T12:45:01.670Z,22.25
2023-04-12T12:48:11.497Z,22.22
2023-04-12T12:49:45.497Z,22.36
2023-04-12T12:51:18.549Z,22.22
2023-04-12T12:52:51.598Z,22.22
2023-04-12T12:54:39.335Z,22.02
2023-04-12T12:56:14.662Z,22.14
2023-04-12T12:57:58.370Z,22.23
2023-04-12T12:59:38.739Z,22.25
2023-04-12T13:01:11.753Z,22.15
2023-04-12T13:02:45.407Z,22.07
2023-04-12T13:04:19.415Z,22.07
2023-04-12T13:05:52.409Z,21.93
2023-04-12T13:07:25.140Z,21.85
2023-04-12T13:08:58.424Z,22.03
2023-04-12T13:10:31.390Z,21.81
2023-04-12T13:12:04.449Z,21.86
2023-04-12T13:13:37.342Z,21.92
2023-04-12T13:15:21.032Z,22.15
2023-04-12T13:16:57.088Z,22.25
2023-04-12T13:18:30.142Z,22.27
2023-04-12T13:20:04.654Z,22.57
2023-04-12T13:21:37.496Z,22.39
2023-04-12T13:23:10.392Z,22.48
2023-04-12T13:24:43.605Z,22.27
2023-04-12T13:26:16.353Z,22.44
2023-04-12T13:27:49.896Z,22.58
2023-04-12T13:29:22.648Z,22.67
2023-04-12T13:30:55.967Z,22.64
2023-04-12T13:32:28.821Z,22.49
2023-04-12T13:34:01.997Z,22.42
2023-04-12T13:35:34.775Z,22.43
2023-04-12T13:37:08.020Z,22.42
2023-04-12T13:38:41.257Z,22.64
2023-04-12T13:40:14.738Z,22.33
2023-04-12T13:41:48.068Z,22.46
2023-04-12T13:43:21.189Z,22.50
2023-04-12T13:44:53.874Z,22.62
2023-04-12T13:46:26.907Z,22.91
2023-04-12T13:47:59.875Z,22.77
2023-04-12T13:49:32.887Z,22.87
2023-04-12T13:51:06.248Z,23.10
2023-04-12T13:52:39.483Z,23.21
2023-04-12T13:54:12.442Z,23.13
2023-04-12T13:55:46.596Z,22.78
2023-04-12T13:57:19.285Z,22.86
2023-04-12T13:58:52.410Z,23.01
2023-04-12T14:00:25.361Z,23.06
2023-04-12T14:01:58.562Z,23.30
2023-04-12T14:03:31.938Z,23.35
2023-04-12T14:05:05.284Z,23.45
2023-04-12T14:06:39.008Z,23.28
2023-04-12T14:08:13.860Z,23.51
2023-04-12T14:09:48.816Z,23.62
2023-04-12T14:11:23.599Z,23.56
2023-04-12T14:12:56.385Z,23.55
2023-04-12T14:14:29.447Z,23.74
2023-04-12T14:16:02.360Z,23.77
2023-04-12T14:17:35.303Z,23.72
2023-04-12T14:19:08.305Z,23.93
2023-04-12T14:20:41.718Z,23.93
2023-04-12T14:22:14.776Z,23.81
2023-04-12T14:23:47.602Z,23.93
2023-04-12T14:25:21.658Z,24.08
2023-04-12T14:26:54.872Z,24.06
2023-04-12T14:28:31.152Z,24.17
2023-04-12T14:30:05.611Z,24.36
2023-04-12T14:31:38.673Z,24.71
2023-04-12T14:33:13.508Z,24.47
2023-04-12T14:34:46.729Z,24.93
2023-04-12T14:36:19.837Z,24.78
2023-04-12T14:37:52.480Z,24.90
2023-04-12T14:39:26.601Z,24.92
2023-04-12T14:40:59.490Z,25.06
2023-04-12T14:42:33.151Z,25.04
2023-04-12T14:44:06.220Z,25.20
2023-04-12T14:45:39.694Z,25.23
2023-04-12T14:47:13.581Z,25.21
2023-04-12T14:48:46.902Z,25.11
2023-04-12T14:50:19.747Z,25.21
2023-04-12T14:51:53.247Z,25.31
2023-04-12T14:53:26.246Z,25.29
2023-04-12T14:54:59.280Z,25.36
2023-04-12T14:56:34.599Z,25.66
2023-04-12T14:58:10.300Z,25.58
2023-04-12T14:59:43.216Z,25.71
2023-04-12T15:01:19.381Z,25.86
2023-04-12T15:02:53.592Z,25.73
2023-04-12T15:04:26.906Z,25.73
2023-04-12T15:05:59.897Z,25.79
2023-04-12T15:07:33.840Z,25.88
2023-04-12T15:09:08.259Z,26.09
2023-04-12T15:10:41.341Z,26.34
2023-04-12T15:12:14.455Z,26.46
2023-04-12T15:13:47.717Z,26.54
2023-04-12T15:15:21.078Z,26.51
2023-04-12T15:16:54.662Z,26.67
2023-04-12T15:18:27.480Z,26.81
2023-04-12T15:20:00.797Z,27.02
2023-04-12T15:21:35.251Z,27.05
2023-04-12T15:23:08.468Z,27.09
2023-04-12T15:24:41.296Z,27.00
2023-04-12T15:26:17.335Z,27.26
2023-04-12T15:27:50.427Z,27.45
2023-04-12T15:29:24.908Z,27.62
2023-04-12T15:30:57.884Z,27.78
2023-04-12T15:32:31.072Z,27.76
2023-04-12T15:34:03.957Z,28.11
2023-04-12T15:35:36.791Z,28.21
2023-04-12T15:37:10.120Z,27.99
2023-04-12T15:38:45.141Z,28.17
2023-04-12T15:40:18.948Z,27.92
2023-04-12T15:41:52.206Z,27.97
2023-04-12T15:43:25.498Z,27.94
2023-04-12T15:44:58.429Z,28.05
2023-04-12T15:46:31.903Z,28.23
2023-04-12T15:48:08.539Z,28.01
2023-04-12T15:49:41.611Z,28.23
2023-04-12T15:51:14.779Z,28.06
2023-04-12T15:52:48.110Z,28.02
2023-04-12T15:54:22.384Z,28.12
2023-04-12T15:55:55.699Z,28.32
2023-04-12T15:57:28.700Z,28.15
2023-04-12T15:59:02.089Z,28.41
2023-04-12T16:00:35.073Z,28.35
2023-04-12T16:02:10.168Z,28.47
2023-04-12T16:03:47.813Z,28.53
2023-04-12T16:05:21.688Z,28.39
2023-04-12T16:06:54.633Z,28.55
2023-04-12T16:08:27.722Z,28.48
2023-04-12T16:10:01.697Z,28.50
2023-04-12T16:11:34.627Z,28.53
2023-04-12T16:13:09.637Z,28.41
2023-04-12T16:14:42.610Z,28.79
2023-04-12T16:16:19.336Z,28.39
2023-04-12T16:17:54.725Z,28.68
2023-04-12T16:19:28.415Z,28.98
2023-04-12T16:21:01.573Z,29.10
2023-04-12T16:22:34.521Z,29.13
2023-04-12T16:24:07.802Z,29.49
2023-04-12T16:25:41.178Z,29.58
2023-04-12T16:27:15.517Z,29.55
2023-04-12T16:28:49.885Z,29.41
2023-04-12T16:30:23.907Z,29.51
2023-04-12T16:31:57.782Z,29.58
2023-04-12T16:33:31.501Z,29.53
2023-04-12T16:35:05.170Z,29.88
2023-04-12T16:36:38.912Z,29.97
2023-04-12T16:38:14.767Z,29.88
2023-04-12T16:39:51.499Z,29.68
2023-04-12T16:41:25.424Z,29.85
2023-04-12T16:42:58.701Z,29.58
2023-04-12T16:44:31.901Z,29.85
2023-04-12T16:46:06.044Z,29.77
2023-04-12T16:47:40.538Z,29.69
2023-04-12T16:49:13.726Z,29.54
2023-04-12T16:50:48.284Z,29.70
2023-04-12T16:52:25.812Z,29.91
2023-04-12T16:53:59.899Z,29.51
2023-04-12T16:55:32.955Z,29.79
2023-04-12T16:57:06.233Z,29.79
2023-04-12T16:58:39.176Z,29.77
2023-04-12T17:00:24.653Z,29.73
2023-04-12T17:02:01.055Z,29.85
2023-04-12T17:03:41.137Z,29.76
2023-04-12T17:05:18.291Z,29.91
2023-04-12T17:06:51.447Z,29.70
2023-04-12T17:08:24.468Z,29.70
2023-04-12T17:09:57.819Z,29.93
2023-04-12T17:11:31.363Z,29.74
2023-04-12T17:13:06.208Z,30.13
2023-04-12T17:14:39.103Z,30.03
2023-04-12T17:16:12.112Z,29.93
2023-04-12T17:17:49.583Z,29.97
2023-04-12T17:19:22.611Z,30.03
2023-04-12T17:20:56.356Z,30.06
2023-04-12T17:22:29.827Z,30.33
2023-04-12T17:24:02.741Z,30.27
2023-04-12T17:25:35.867Z,30.23
2023-04-12T17:27:09.115Z,30.18
2023-04-12T17:28:42.385Z,30.27
2023-04-12T17:30:17.981Z,30.21
2023-04-12T17:31:54.276Z,30.32
2023-04-12T17:33:28.690Z,30.22
2023-04-12T17:35:01.827Z,30.33
2023-04-12T17:36:35.758Z,30.32
2023-04-12T17:38:09.048Z,30.34
2023-04-12T17:39:42.697Z,30.66
2023-04-12T17:41:15.615Z,31.36
2023-04-12T17:42:49.406Z,30.98
2023-04-12T17:44:22.585Z,30.99
2023-04-12T17:45:55.862Z,31.01
2023-04-12T17:47:29.351Z,31.16
2023-04-12T17:49:06.249Z,31.20
2023-04-12T17:50:39.780Z,31.25
2023-04-12T17:52:14.623Z,31.40
2023-04-12T17:53:55.532Z,31.53
2023-04-12T17:55:29.223Z,31.47
2023-04-12T17:57:04.226Z,31.47
2023-04-12T17:58:37.652Z,31.40
2023-04-12T18:00:14.448Z,31.53
2023-04-12T18:01:47.393Z,31.83
2023-04-12T18:03:21.108Z,31.70
2023-04-12T18:04:54.509Z,31.92
2023-04-12T18:06:27.764Z,31.98
2023-04-12T18:08:00.609Z,32.08
2023-04-12T18:09:34.102Z,31.86
2023-04-12T18:11:08.306Z,32.06
2023-04-12T18:12:41.314Z,32.30
2023-04-12T18:14:14.194Z,32.48
2023-04-12T18:15:47.669Z,32.66
2023-04-12T18:17:21.087Z,32.44
2023-04-12T18:18:55.195Z,32.61
2023-04-12T18:20:29.271Z,32.71
2023-04-12T18:22:02.468Z,32.78
2023-04-12T18:23:35.704Z,33.16
2023-04-12T18:25:09.208Z,33.31
2023-04-12T18:26:42.224Z,33.62
2023-04-12T18:28:15.519Z,33.50
2023-04-12T18:29:48.200Z,33.46
2023-04-12T18:31:21.515Z,33.69
2023-04-12T18:32:54.189Z,33.74
2023-04-12T18:34:27.952Z,33.93
2023-04-12T18:36:03.082Z,34.10
2023-04-12T18:37:37.372Z,34.20
2023-04-12T18:39:11.388Z,34.24
2023-04-12T18:40:44.314Z,34.12
2023-04-12T18:42:16.955Z,34.29
2023-04-12T18:43:49.769Z,34.35
2023-04-12T18:45:22.914Z,34.49
2023-04-12T18:46:55.806Z,34.38
2023-04-12T18:48:28.734Z,34.59
2023-04-12T18:50:01.902Z,34.72
2023-04-12T18:51:36.392Z,34.76
2023-04-12T18:53:09.897Z,34.74
2023-04-12T18:54:42.845Z,34.84
2023-04-12T18:56:18.427Z,34.91
2023-04-12T18:57:51.829Z,34.94
2023-04-12T18:59:25.453Z,34.89
2023-04-12T19:00:58.165Z,35.13
2023-04-12T19:02:31.300Z,34.95
2023-04-12T19:04:06.035Z,35.04
2023-04-12T19:05:38.819Z,35.06
2023-04-12T19:07:11.597Z,35.30
2023-04-12T19:08:44.412Z,35.34
2023-04-12T19:10:17.830Z,35.51
2023-04-12T19:11:50.786Z,35.60
2023-04-12T19:13:23.571Z,35.48
2023-04-12T19:14:56.371Z,35.55
2023-04-12T19:16:29.142Z,35.63
2023-04-12T19:18:02.220Z,35.78
2023-04-12T19:19:35.223Z,35.76
2023-04-12T19:21:08.445Z,35.73
2023-04-12T19:22:41.210Z,35.83
2023-04-12T19:24:14.305Z,35.92
2023-04-12T19:25:47.715Z,35.90
2023-04-12T19:27:21.449Z,35.84
2023-04-12T19:28:55.927Z,35.95
2023-04-12T19:30:29.982Z,35.93
2023-04-12T19:32:05.611Z,35.85
2023-04-12T19:33:40.258Z,35.93
2023-04-12T19:35:14.335Z,35.88
2023-04-12T19:36:47.987Z,36.10
2023-04-12T19:38:21.388Z,35.83
2023-04-12T19:39:54.113Z,36.24
2023-04-12T19:41:26.945Z,36.30
2023-04-12T19:42:59.746Z,36.33
2023-04-12T19:44:32.470Z,36.41
2023-04-12T19:46:05.562Z,36.48
2023-04-12T19:47:45.027Z,36.53
2023-04-12T19:49:19.024Z,36.55
2023-04-12T19:50:51.857Z,36.51
2023-04-12T19:52:24.660Z,36.39
2023-04-12T19:53:57.720Z,36.36
2023-04-12T19:55:30.954Z,36.47
2023-04-12T19:57:06.758Z,36.80
2023-04-12T19:58:41.067Z,37.09
2023-04-12T20:00:19.821Z,37.17
2023-04-12T20:01:52.956Z,37.10
2023-04-12T20:03:26.152Z,36.95
2023-04-12T20:04:58.862Z,36.91
2023-04-12T20:06:31.571Z,36.84
2023-04-12T20:08:04.408Z,36.98
2023-04-12T20:09:37.214Z,36.91
2023-04-12T20:11:10.454Z,37.24
2023-04-12T20:12:43.496Z,37.50
2023-04-12T20:14:16.309Z,37.68
2023-04-12T20:15:50.001Z,37.59
2023-04-12T20:17:23.865Z,37.74
2023-04-12T20:18:57.869Z,37.68
2023-04-12T20:20:32.676Z,37.61
2023-04-12T20:22:07.055Z,37.60
2023-04-12T20:23:39.681Z,37.74
2023-04-12T20:25:13.401Z,38.10
2023-04-12T20:26:47.789Z,37.80
2023-04-12T20:28:21.403Z,37.78